Time;durP1;ratioP1;P1;durP2;ratioP2;P2;SDS_P1;SDS_P2;PMS_P1;PMS_P2;Temp;Humidity;BMP_temperature;BMP_pressure;BME280_temperature;BME280_humidity;BME280_pressure;Samples;Min_cycle;Max_cycle;Signal;HPM_P1;HPM_P2
2023/09/05 00:00:47;;;;;;;25.95;23.95;;;21.70;99.90;;;;;;6281476;22;20011;-82
2023/09/05 00:03:13;;;;;;;25.85;23.85;;;21.70;99.90;;;;;;6308826;22;20121;-82
2023/09/05 00:05:39;;;;;;;25.77;24.08;;;21.70;99.90;;;;;;6280980;22;20029;-81
2023/09/05 00:08:05;;;;;;;25.27;23.67;;;21.70;99.90;;;;;;6255939;22;20545;-82
2023/09/05 00:10:32;;;;;;;25.73;23.92;;;21.70;99.90;;;;;;6308516;22;20148;-82
2023/09/05 00:13:05;;;;;;;25.95;24.05;;;21.70;99.90;;;;;;6308741;22;20056;-82
2023/09/05 00:15:32;;;;;;;26.02;24.23;;;21.70;99.90;;;;;;6281414;22;20007;-82
2023/09/05 00:17:58;;;;;;;25.33;23.73;;;21.70;99.90;;;;;;6281320;22;20038;-82
2023/09/05 00:20:26;;;;;;;26.17;24.38;;;21.70;99.90;;;;;;6281434;22;20010;-82
2023/09/05 00:22:53;;;;;;;26.17;24.48;;;21.70;99.90;;;;;;6308584;22;20062;-82
2023/09/05 00:25:19;;;;;;;25.95;24.08;;;21.80;99.90;;;;;;6255670;22;20008;-82
2023/09/05 00:27:46;;;;;;;26.52;24.73;;;21.70;99.90;;;;;;6255728;22;20412;-82
2023/09/05 00:30:14;;;;;;;25.65;24.05;;;21.80;99.90;;;;;;6308192;22;20096;-82
2023/09/05 00:32:40;;;;;;;26.23;24.33;;;21.80;99.90;;;;;;6308543;22;20066;-82
2023/09/05 00:35:07;;;;;;;26.20;24.23;;;21.80;99.90;;;;;;6280984;22;20376;-82
2023/09/05 00:37:34;;;;;;;26.17;24.58;;;21.80;99.90;;;;;;6308202;22;20003;-82
2023/09/05 00:40:04;;;;;;;26.60;24.77;;;21.90;99.90;;;;;;6281011;22;20015;-81
2023/09/05 00:42:31;;;;;;;26.65;24.75;;;21.90;99.90;;;;;;6308455;22;20010;-81
2023/09/05 00:44:58;;;;;;;26.10;24.33;;;21.90;99.90;;;;;;6281029;22;20428;-82
2023/09/05 00:47:30;;;;;;;26.27;24.48;;;21.90;99.90;;;;;;6255515;22;20003;-81
2023/09/05 00:49:58;;;;;;;26.67;24.48;;;22.00;99.90;;;;;;6280841;22;20011;-82
2023/09/05 00:52:26;;;;;;;25.63;24.10;;;21.90;99.90;;;;;;6255507;22;20082;-82
2023/09/05 00:54:54;;;;;;;25.58;23.90;;;22.00;99.90;;;;;;6280894;22;20038;-82
2023/09/05 00:57:22;;;;;;;26.25;24.45;;;22.00;99.90;;;;;;6255299;22;20041;-82
2023/09/05 00:59:50;;;;;;;25.33;23.83;;;22.00;99.90;;;;;;6280793;22;20011;-82
2023/09/05 01:02:18;;;;;;;26.05;24.25;;;22.00;99.90;;;;;;6308235;22;19995;-82
2023/09/05 01:04:45;;;;;;;25.52;23.70;;;22.00;99.90;;;;;;6255433;22;20318;-82
2023/09/05 01:07:21;;;;;;;25.95;24.08;;;22.00;99.90;;;;;;6226724;22;20020;-82
2023/09/05 01:09:56;;;;;;;26.15;24.13;;;22.00;99.90;;;;;;6224434;22;20027;-82
2023/09/05 01:12:23;;;;;;;25.48;23.60;;;22.00;99.90;;;;;;6224833;22;20460;-82
2023/09/05 01:14:49;;;;;;;25.02;23.52;;;22.00;99.90;;;;;;6275917;22;19996;-82
2023/09/05 01:17:16;;;;;;;25.33;23.65;;;21.90;99.90;;;;;;6277388;22;20015;-82
2023/09/05 01:19:43;;;;;;;25.55;23.95;;;22.00;99.90;;;;;;6249872;22;20433;-82
2023/09/05 01:22:25;;;;;;;25.77;23.88;;;21.90;99.90;;;;;;6277073;22;20004;-82
2023/09/05 01:24:51;;;;;;;25.35;23.55;;;21.90;99.90;;;;;;6249864;22;20015;-81
2023/09/05 01:27:23;;;;;;;25.27;23.67;;;21.80;99.90;;;;;;6250020;22;20008;-82
2023/09/05 01:29:51;;;;;;;25.63;23.80;;;21.80;99.90;;;;;;6277358;22;20030;-82
2023/09/05 01:32:19;;;;;;;25.27;23.48;;;21.80;99.90;;;;;;6224729;22;20447;-82
2023/09/05 01:34:47;;;;;;;24.77;23.17;;;21.80;99.90;;;;;;6249848;22;20046;-82
2023/09/05 01:37:15;;;;;;;25.92;23.92;;;21.70;99.90;;;;;;6249881;22;20003;-82
2023/09/05 01:39:42;;;;;;;24.80;23.15;;;21.70;99.90;;;;;;6249981;22;20324;-82
2023/09/05 01:42:09;;;;;;;24.67;22.90;;;21.70;99.90;;;;;;6249805;22;20010;-82
2023/09/05 01:44:36;;;;;;;24.77;23.17;;;21.60;99.90;;;;;;6224528;22;20037;-82
2023/09/05 01:47:04;;;;;;;25.02;23.15;;;21.60;99.90;;;;;;6224709;22;20011;-82
2023/09/05 01:49:30;;;;;;;24.63;22.92;;;21.60;99.90;;;;;;6249420;22;20004;-82
2023/09/05 01:51:56;;;;;;;25.02;23.30;;;21.60;99.90;;;;;;6224531;22;20022;-82
2023/09/05 01:54:24;;;;;;;24.67;23.13;;;21.60;99.90;;;;;;6249580;22;20061;-82
2023/09/05 01:56:51;;;;;;;24.80;23.23;;;21.60;99.90;;;;;;6277322;22;20083;-82
2023/09/05 01:59:21;;;;;;;24.63;23.02;;;21.60;99.90;;;;;;6249707;22;20493;-82
2023/09/05 02:01:47;;;;;;;24.88;23.38;;;21.60;99.90;;;;;;6277029;22;20031;-82
2023/09/05 02:04:14;;;;;;;24.63;22.80;;;21.60;99.90;;;;;;6249920;22;20307;-82
2023/09/05 02:06:40;;;;;;;25.17;23.08;;;21.60;99.90;;;;;;6298807;22;20034;-82
2023/09/05 02:09:07;;;;;;;25.65;23.58;;;21.60;99.90;;;;;;6254942;22;20109;-82
2023/09/05 02:11:34;;;;;;;24.85;23.05;;;21.60;99.90;;;;;;6280323;22;20345;-82
2023/09/05 02:14:00;;;;;;;24.55;22.85;;;21.70;99.90;;;;;;6280458;22;20074;-82
2023/09/05 02:16:28;;;;;;;24.42;22.90;;;21.70;99.90;;;;;;6280570;22;20074;-82
2023/09/05 02:18:54;;;;;;;24.65;22.92;;;21.70;99.90;;;;;;6280487;22;20057;-81
2023/09/05 02:21:21;;;;;;;24.27;22.58;;;21.70;99.90;;;;;;6254749;22;20011;-82
2023/09/05 02:23:48;;;;;;;24.13;22.35;;;21.70;99.90;;;;;;6280208;22;20428;-82
2023/09/05 02:26:21;;;;;;;23.85;22.20;;;21.80;99.90;;;;;;6280584;22;20007;-82
2023/09/05 02:28:47;;;;;;;24.00;22.60;;;21.70;99.90;;;;;;6280372;22;20007;-82
2023/09/05 02:31:14;;;;;;;23.98;22.45;;;21.80;99.90;;;;;;6280291;22;20011;-82
2023/09/05 02:33:41;;;;;;;23.75;22.25;;;21.80;99.90;;;;;;6280275;22;20007;-82
2023/09/05 02:36:18;;;;;;;24.05;22.55;;;21.80;99.90;;;;;;6280168;22;20010;-82
2023/09/05 02:38:45;;;;;;;24.20;22.75;;;21.90;99.90;;;;;;6254936;22;20003;-82
2023/09/05 02:41:13;;;;;;;24.38;22.65;;;21.80;99.90;;;;;;6307612;22;20072;-82
2023/09/05 02:43:40;;;;;;;23.65;22.23;;;21.80;99.90;;;;;;6280436;22;20003;-82
2023/09/05 02:46:07;;;;;;;24.05;22.45;;;21.80;99.90;;;;;;6280252;22;20014;-82
2023/09/05 02:48:39;;;;;;;24.35;22.60;;;21.80;99.90;;;;;;6307734;22;20069;-82
2023/09/05 02:51:08;;;;;;;23.88;22.38;;;21.90;99.90;;;;;;6254744;22;20019;-82
2023/09/05 02:53:35;;;;;;;25.85;23.63;;;21.90;99.90;;;;;;6254686;22;20003;-82
2023/09/05 02:56:02;;;;;;;24.52;22.92;;;21.90;99.90;;;;;;6280213;22;20352;-81
2023/09/05 02:58:31;;;;;;;24.73;23.13;;;21.90;99.90;;;;;;6307377;22;20026;-81
2023/09/05 03:01:12;;;;;;;24.40;22.90;;;21.90;99.90;;;;;;6281314;22;20094;-83
2023/09/05 03:03:39;;;;;;;24.65;22.88;;;21.90;99.90;;;;;;6309373;22;20003;-83
2023/09/05 03:06:13;;;;;;;24.60;23.17;;;21.90;99.90;;;;;;6250961;22;20026;-81
2023/09/05 03:08:44;;;;;;;24.38;22.88;;;21.90;99.90;;;;;;6278299;22;20000;-83
2023/09/05 03:11:14;;;;;;;24.90;23.38;;;21.90;99.90;;;;;;6251036;22;20020;-82
2023/09/05 03:13:40;;;;;;;24.75;23.05;;;21.90;99.90;;;;;;6276069;22;20018;-82
2023/09/05 03:16:07;;;;;;;25.00;23.30;;;21.80;99.90;;;;;;6250776;22;20008;-82
2023/09/05 03:18:38;;;;;;;24.80;23.02;;;21.90;99.90;;;;;;6251001;22;20379;-81
2023/09/05 03:21:05;;;;;;;24.85;23.25;;;21.80;99.90;;;;;;6276587;22;20447;-81
2023/09/05 03:23:32;;;;;;;24.70;23.00;;;21.80;99.90;;;;;;6277663;22;20023;-81
2023/09/05 03:26:00;;;;;;;24.13;22.63;;;21.80;99.90;;;;;;6276225;22;20008;-81
2023/09/05 03:28:39;;;;;;;24.15;22.73;;;21.80;99.90;;;;;;6276610;22;20007;-81
2023/09/05 03:31:07;;;;;;;24.80;23.02;;;21.80;99.90;;;;;;6278873;22;20018;-81
2023/09/05 03:33:34;;;;;;;24.58;22.92;;;21.80;99.90;;;;;;6250834;22;20011;-82
2023/09/05 03:36:00;;;;;;;24.75;23.10;;;21.80;99.90;;;;;;6251484;22;20004;-83
2023/09/05 03:38:26;;;;;;;24.65;22.98;;;21.80;99.90;;;;;;6250958;22;20003;-82
2023/09/05 03:40:55;;;;;;;25.35;23.25;;;21.80;99.90;;;;;;6250899;22;20012;-83
2023/09/05 03:43:22;;;;;;;24.70;23.20;;;21.80;99.90;;;;;;6276328;22;19999;-82
2023/09/05 03:45:49;;;;;;;24.83;23.23;;;21.80;99.90;;;;;;6250608;22;20401;-82
2023/09/05 03:48:16;;;;;;;25.63;23.50;;;21.80;99.90;;;;;;6276369;22;20098;-82
2023/09/05 03:50:43;;;;;;;25.42;23.55;;;21.80;99.90;;;;;;6250429;22;20019;-82
2023/09/05 03:53:09;;;;;;;25.45;23.30;;;21.80;99.90;;;;;;6250767;22;20006;-83
2023/09/05 03:55:36;;;;;;;25.08;23.45;;;21.80;99.90;;;;;;6250429;22;20015;-83
2023/09/05 03:58:03;;;;;;;24.98;23.38;;;21.80;99.90;;;;;;6250874;22;20000;-82
2023/09/05 04:00:34;;;;;;;25.30;23.55;;;21.80;99.90;;;;;;6276155;22;20030;-83
2023/09/05 04:03:04;;;;;;;25.15;23.55;;;21.80;99.90;;;;;;6250861;22;20030;-82
2023/09/05 04:05:32;;;;;;;26.23;24.13;;;21.90;99.90;;;;;;6256401;22;20436;-82
2023/09/05 04:07:59;;;;;;;26.50;24.50;;;21.90;99.90;;;;;;6255709;22;20397;-82
2023/09/05 04:10:25;;;;;;;27.60;25.42;;;21.90;99.90;;;;;;6281004;22;20018;-82
2023/09/05 04:12:52;;;;;;;27.88;25.75;;;21.90;99.90;;;;;;6255442;22;20007;-82
2023/09/05 04:15:21;;;;;;;27.85;25.65;;;21.90;99.90;;;;;;6281087;22;19995;-81
2023/09/05 04:17:50;;;;;;;27.38;25.48;;;21.90;99.90;;;;;;6280969;22;20093;-82
2023/09/05 04:20:26;;;;;;;28.65;26.27;;;21.90;99.90;;;;;;6281293;22;20007;-81
2023/09/05 04:22:53;;;;;;;29.25;26.98;;;21.80;99.90;;;;;;6281496;22;20082;-82
2023/09/05 04:25:26;;;;;;;28.63;26.55;;;21.80;99.90;;;;;;6280657;22;20010;-81
2023/09/05 04:27:53;;;;;;;27.90;25.90;;;21.80;99.90;;;;;;6281779;22;20003;-82
2023/09/05 04:30:19;;;;;;;28.77;26.17;;;21.80;99.90;;;;;;6308156;22;20008;-82
2023/09/05 04:32:45;;;;;;;28.40;26.00;;;21.80;99.90;;;;;;6308887;22;20417;-82
2023/09/05 04:35:15;;;;;;;29.20;26.60;;;21.80;99.90;;;;;;6282030;22;19996;-82
2023/09/05 04:37:42;;;;;;;27.88;25.63;;;21.90;99.90;;;;;;6280870;22;20021;-81
2023/09/05 04:40:09;;;;;;;27.98;25.70;;;21.90;99.90;;;;;;6308345;22;20015;-81
2023/09/05 04:42:36;;;;;;;27.40;25.30;;;21.90;99.90;;;;;;6281957;22;20429;-81
2023/09/05 04:45:03;;;;;;;26.75;24.73;;;22.00;99.90;;;;;;6308534;22;19995;-81
2023/09/05 04:47:30;;;;;;;26.83;24.63;;;22.00;99.90;;;;;;6280782;22;20467;-81
2023/09/05 04:49:58;;;;;;;27.83;25.23;;;22.10;99.90;;;;;;6280839;22;20003;-81
2023/09/05 04:52:28;;;;;;;27.65;25.33;;;22.10;99.90;;;;;;6281488;22;20010;-81
2023/09/05 04:54:58;;;;;;;28.70;26.08;;;22.20;99.90;;;;;;6281383;22;19995;-81
2023/09/05 04:57:26;;;;;;;27.65;25.35;;;22.30;99.90;;;;;;6254939;22;20011;-81
2023/09/05 04:59:59;;;;;;;28.05;25.40;;;22.30;99.90;;;;;;6280705;22;20374;-81
2023/09/05 05:02:31;;;;;;;30.02;26.85;;;22.40;99.90;;;;;;6309307;22;20064;-82
2023/09/05 05:05:01;;;;;;;28.58;26.25;;;22.40;99.90;;;;;;6280540;22;20008;-82
2023/09/05 05:07:27;;;;;;;28.92;26.58;;;22.50;99.90;;;;;;6255927;22;20047;-82
2023/09/05 05:10:00;;;;;;;28.55;25.92;;;22.60;99.90;;;;;;6255099;22;20035;-82
2023/09/05 05:12:26;;;;;;;29.35;26.58;;;22.80;99.90;;;;;;6281734;22;20019;-81
2023/09/05 05:14:56;;;;;;;27.95;25.80;;;22.90;99.90;;;;;;6280692;22;20337;-81
2023/09/05 05:17:22;;;;;;;28.30;25.67;;;23.10;99.90;;;;;;6308886;22;20325;-81
2023/09/05 05:19:49;;;;;;;28.50;26.00;;;23.40;99.90;;;;;;6280289;22;20010;-81
2023/09/05 05:22:15;;;;;;;28.77;26.17;;;23.60;99.90;;;;;;6308947;22;20328;-82
2023/09/05 05:24:41;;;;;;;28.30;25.83;;;23.70;99.90;;;;;;6307936;22;20320;-81
2023/09/05 05:27:08;;;;;;;27.45;24.95;;;24.10;99.90;;;;;;6281611;22;20375;-81
2023/09/05 05:29:34;;;;;;;26.90;24.27;;;24.30;99.90;;;;;;6255199;22;20003;-82
2023/09/05 05:32:01;;;;;;;25.85;23.92;;;24.80;99.90;;;;;;6308769;22;20015;-81
2023/09/05 05:34:29;;;;;;;26.75;24.60;;;25.30;99.90;;;;;;6280572;22;20125;-81
2023/09/05 05:36:56;;;;;;;28.15;24.73;;;25.60;99.90;;;;;;6308684;22;20436;-82
2023/09/05 05:39:25;;;;;;;27.38;25.48;;;25.70;99.90;;;;;;6280441;22;20372;-81
2023/09/05 05:41:52;;;;;;;26.95;24.80;;;25.50;99.90;;;;;;6280289;22;20011;-80
2023/09/05 05:44:19;;;;;;;26.50;24.27;;;25.50;99.90;;;;;;6308020;22;20511;-81
2023/09/05 05:46:47;;;;;;;26.90;24.98;;;24.80;99.90;;;;;;6307615;22;20014;-81
2023/09/05 05:49:13;;;;;;;28.63;25.75;;;24.50;99.90;;;;;;6280703;22;20007;-80
2023/09/05 05:51:40;;;;;;;27.80;25.50;;;24.40;99.90;;;;;;6307764;22;20344;-81
2023/09/05 05:54:07;;;;;;;27.30;25.25;;;24.20;99.90;;;;;;6280330;22;20088;-81
2023/09/05 05:56:36;;;;;;;27.73;25.55;;;24.00;99.90;;;;;;6308126;22;20010;-80
2023/09/05 05:59:02;;;;;;;28.85;26.02;;;23.90;99.90;;;;;;6280445;22;20003;-81
2023/09/05 06:01:33;;;;;;;27.88;25.98;;;23.70;99.90;;;;;;6307653;22;20003;-80
2023/09/05 06:04:00;;;;;;;27.15;25.05;;;23.80;99.90;;;;;;6307669;22;20003;-80
2023/09/05 06:06:26;;;;;;;27.13;25.23;;;23.70;99.90;;;;;;6307389;22;20043;-80
2023/09/05 06:08:53;;;;;;;26.77;24.58;;;23.70;99.90;;;;;;6254697;22;20014;-80
2023/09/05 06:11:20;;;;;;;26.30;24.30;;;23.80;99.90;;;;;;6280164;22;20340;-80
2023/09/05 06:13:46;;;;;;;26.83;24.55;;;23.90;99.90;;;;;;6254864;22;20008;-81
2023/09/05 06:16:12;;;;;;;26.65;24.60;;;23.90;99.90;;;;;;6307517;22;20041;-81
2023/09/05 06:18:39;;;;;;;26.55;24.35;;;24.00;99.90;;;;;;6280546;22;20454;-80
2023/09/05 06:21:06;;;;;;;26.60;24.48;;;24.00;99.90;;;;;;6307766;22;20332;-80
2023/09/05 06:23:35;;;;;;;26.83;24.60;;;24.20;99.90;;;;;;6307721;22;20075;-80
2023/09/05 06:26:01;;;;;;;26.25;24.48;;;24.30;99.90;;;;;;6280046;22;20083;-80
2023/09/05 06:28:27;;;;;;;26.98;24.67;;;24.30;99.90;;;;;;6279779;22;20011;-80
2023/09/05 06:31:00;;;;;;;26.77;24.40;;;24.40;99.90;;;;;;6280084;22;20090;-80
2023/09/05 06:33:26;;;;;;;27.00;24.65;;;24.60;99.90;;;;;;6280044;22;20015;-80
2023/09/05 06:35:55;;;;;;;25.83;24.17;;;24.60;99.90;;;;;;6281345;22;19999;-80
2023/09/05 06:38:22;;;;;;;25.90;23.90;;;24.50;99.90;;;;;;6282055;22;20074;-80
2023/09/05 06:40:50;;;;;;;26.13;24.23;;;24.70;99.90;;;;;;6256589;22;20050;-80
2023/09/05 06:43:16;;;;;;;26.33;23.88;;;24.80;99.90;;;;;;6282236;22;20472;-80
2023/09/05 06:45:42;;;;;;;25.95;23.63;;;24.70;99.90;;;;;;6281896;22;20026;-80
2023/09/05 06:48:08;;;;;;;25.73;23.60;;;24.60;99.90;;;;;;6282933;22;20386;-84
2023/09/05 06:50:34;;;;;;;26.73;24.30;;;24.50;99.90;;;;;;6256563;22;20015;-83
2023/09/05 06:53:01;;;;;;;25.80;23.95;;;24.60;99.90;;;;;;6256087;22;20077;-85
2023/09/05 06:55:28;;;;;;;26.75;24.42;;;24.80;99.90;;;;;;6257582;22;20030;-85
2023/09/05 06:57:55;;;;;;;26.27;24.17;;;24.90;99.90;;;;;;6285298;22;20004;-84
2023/09/05 07:00:25;;;;;;;26.67;24.38;;;24.70;99.90;;;;;;6259272;22;20421;-85
2023/09/05 07:02:53;;;;;;;26.45;23.83;;;24.60;99.90;;;;;;6259719;22;20011;-86
2023/09/05 07:05:21;;;;;;;26.73;24.60;;;24.60;99.90;;;;;;6259291;22;20000;-85
2023/09/05 07:07:47;;;;;;;26.00;23.92;;;25.10;99.90;;;;;;6284710;22;20314;-88
2023/09/05 07:10:22;;;;;;;27.42;25.15;;;25.80;99.90;;;;;;6258177;22;20441;-90
2023/09/05 07:12:49;;;;;;;28.63;26.23;;;26.80;99.90;;;;;;6286872;22;20003;-85
2023/09/05 07:15:18;;;;;;;28.83;26.27;;;26.80;99.90;;;;;;6257010;22;20010;-85
2023/09/05 07:17:44;;;;;;;29.17;26.80;;;26.90;99.90;;;;;;6256721;22;20371;-89
2023/09/05 07:20:11;;;;;;;28.05;25.90;;;26.60;99.90;;;;;;6257013;22;20004;-86
2023/09/05 07:22:38;;;;;;;28.75;26.27;;;26.50;99.90;;;;;;6282634;22;20118;-89
2023/09/05 07:25:05;;;;;;;28.73;26.60;;;26.20;99.90;;;;;;6256756;22;20026;-85
2023/09/05 07:27:31;;;;;;;29.08;26.67;;;26.70;99.90;;;;;;6282612;22;20011;-87
2023/09/05 07:29:57;;;;;;;30.73;28.33;;;27.40;99.90;;;;;;6257105;22;20009;-88
2023/09/05 07:32:23;;;;;;;32.28;29.77;;;27.80;99.90;;;;;;6257102;22;20007;-90
2023/09/05 07:34:50;;;;;;;31.73;29.52;;;27.90;99.90;;;;;;6257007;22;19999;-88
2023/09/05 07:37:17;;;;;;;32.13;29.88;;;28.30;99.90;;;;;;6282075;22;20073;-88
2023/09/05 07:39:46;;;;;;;32.72;30.30;;;28.70;99.90;;;;;;6256675;22;20390;-88
2023/09/05 07:42:12;;;;;;;32.55;30.30;;;28.70;99.90;;;;;;6282810;22;20345;-86
2023/09/05 07:44:39;;;;;;;33.03;30.55;;;28.50;99.90;;;;;;6257016;22;20424;-89
2023/09/05 07:47:06;;;;;;;31.08;28.80;;;28.60;99.90;;;;;;6256915;22;20105;-87
2023/09/05 07:49:42;;;;;;;30.70;28.55;;;27.70;99.90;;;;;;6257192;22;20018;-87
2023/09/05 07:52:09;;;;;;;29.25;27.02;;;27.30;99.90;;;;;;6282637;22;20023;-89
2023/09/05 07:54:36;;;;;;;29.30;26.90;;;27.10;99.90;;;;;;6256853;22;20372;-90
2023/09/05 07:57:04;;;;;;;28.92;26.92;;;27.10;99.90;;;;;;6282384;22;20011;-87
2023/09/05 07:59:34;;;;;;;29.67;27.10;;;26.90;99.90;;;;;;6257160;22;20018;-88
2023/09/05 08:02:04;;;;;;;28.15;26.08;;;26.50;99.90;;;;;;6257306;22;20004;-90
2023/09/05 08:04:31;;;;;;;27.95;25.63;;;26.40;99.90;;;;;;6282833;22;20350;-86
2023/09/05 08:06:58;;;;;;;27.25;25.50;;;26.00;99.90;;;;;;6232388;22;20019;-88
2023/09/05 08:09:24;;;;;;;26.08;24.38;;;25.60;99.90;;;;;;6251789;22;20012;-89
2023/09/05 08:11:56;;;;;;;27.80;25.38;;;25.70;99.90;;;;;;6251386;22;20061;-87
2023/09/05 08:14:23;;;;;;;26.55;24.55;;;25.50;99.90;;;;;;6254557;22;20007;-90
2023/09/05 08:16:50;;;;;;;26.98;24.58;;;25.50;99.90;;;;;;6257182;22;20472;-90
2023/09/05 08:19:16;;;;;;;27.98;25.45;;;25.40;99.90;;;;;;6250812;22;20011;-90
2023/09/05 08:21:42;;;;;;;28.17;25.52;;;25.50;99.90;;;;;;6251463;22;20006;-88
2023/09/05 08:24:18;;;;;;;28.35;25.77;;;25.30;99.90;;;;;;6252206;22;20037;-91
2023/09/05 08:26:44;;;;;;;27.23;24.92;;;25.30;99.90;;;;;;6251752;22;20007;-88
2023/09/05 08:29:12;;;;;;;26.63;24.73;;;25.20;99.90;;;;;;6251957;22;20011;-90
2023/09/05 08:31:51;;;;;;;;;;;;;;;;;;;;;
2023/09/05 08:34:26;;;;;;;27.05;24.95;;;24.90;99.90;;;;;;6257537;22;20008;-93
2023/09/05 08:36:52;;;;;;;26.45;24.70;;;24.90;99.90;;;;;;6257964;22;20418;-92
2023/09/05 08:39:36;;;;;;;28.35;25.58;;;25.10;99.90;;;;;;6255507;22;20000;-93
2023/09/05 08:42:06;;;;;;;26.85;24.75;;;25.30;99.90;;;;;;6251885;22;20008;-93
2023/09/05 08:44:56;;;;;;;26.40;24.23;;;25.20;99.90;;;;;;6253103;22;20007;-93
2023/09/05 08:47:23;;;;;;;26.23;24.23;;;25.30;99.90;;;;;;6253070;22;20004;-64
2023/09/05 08:49:50;;;;;;;26.63;24.55;;;25.50;99.90;;;;;;6277810;22;20003;-88
2023/09/05 08:52:19;;;;;;;27.02;24.88;;;25.50;99.90;;;;;;6250268;22;20078;-84
2023/09/05 08:54:46;;;;;;;28.25;25.77;;;25.60;99.90;;;;;;6250510;22;20007;-83
2023/09/05 08:57:18;;;;;;;26.75;25.05;;;25.70;99.90;;;;;;6275532;22;20065;-84
2023/09/05 08:59:44;;;;;;;27.08;24.88;;;25.80;99.90;;;;;;6277461;22;20004;-84
2023/09/05 09:06:25;;;;;;;27.67;25.67;;;25.90;99.90;;;;;;5141624;27;20330;-83
2023/09/05 09:08:53;;;;;;;27.63;25.63;;;25.90;99.90;;;;;;5093806;28;20032;-85
2023/09/05 09:11:21;;;;;;;28.60;26.10;;;25.80;99.90;;;;;;5084705;28;20027;-86
2023/09/05 09:14:01;;;;;;;28.13;26.13;;;25.80;99.90;;;;;;5089169;28;20028;-85
2023/09/05 09:16:30;;;;;;;28.73;26.05;;;25.70;99.90;;;;;;5089768;28;20038;-85
2023/09/05 09:19:02;;;;;;;29.30;26.65;;;25.80;99.90;;;;;;5102138;28;20019;-89
2023/09/05 09:21:35;;;;;;;28.35;26.17;;;25.60;99.90;;;;;;5077853;28;20053;-84
2023/09/05 09:24:24;;;;;;;28.60;26.50;;;25.60;99.90;;;;;;5076057;28;20047;-90
2023/09/05 09:26:53;;;;;;;29.15;26.98;;;25.80;99.90;;;;;;5092167;28;20023;-84
2023/09/05 09:29:19;;;;;;;30.10;27.52;;;25.90;99.90;;;;;;5106097;28;20387;-86
2023/09/05 09:31:47;;;;;;;29.48;26.85;;;25.90;99.90;;;;;;5092922;28;20408;-84
2023/09/05 09:37:11;;;;;;;29.58;27.20;;;26.00;99.90;;;;;;5099579;27;20707;-87
2023/09/05 09:39:37;;;;;;;28.63;26.50;;;26.50;99.90;;;;;;5077881;28;20087;-83
2023/09/05 09:42:03;;;;;;;28.15;25.92;;;26.80;99.90;;;;;;5069168;28;20024;-84
2023/09/05 09:44:32;;;;;;;28.00;25.95;;;26.90;99.90;;;;;;5068482;28;20032;-84
2023/09/05 09:47:01;;;;;;;27.90;25.52;;;26.50;99.90;;;;;;5052562;28;20052;-83
2023/09/05 09:49:29;;;;;;;28.17;26.00;;;26.70;99.90;;;;;;5068570;28;20031;-88
2023/09/05 09:52:04;;;;;;;29.63;27.50;;;27.00;99.90;;;;;;5069571;28;20025;-85
2023/09/05 09:54:38;;;;;;;28.17;26.13;;;27.50;99.90;;;;;;5069064;28;20042;-83
2023/09/05 09:57:06;;;;;;;29.30;26.75;;;27.30;99.90;;;;;;5068108;28;20063;-84
2023/09/05 09:59:37;;;;;;;28.52;26.30;;;26.70;99.90;;;;;;5068933;28;20021;-85
2023/09/05 10:02:17;;;;;;;28.63;26.52;;;26.50;99.90;;;;;;5051692;28;20033;-84
2023/09/05 10:05:24;;;;;;;28.90;26.58;;;26.60;99.90;;;;;;5068003;28;20051;-85
2023/09/05 10:07:53;;;;;;;28.42;26.63;;;26.80;99.90;;;;;;5040389;28;20021;-88
2023/09/05 10:10:21;;;;;;;30.08;27.75;;;27.10;99.90;;;;;;5052165;28;20031;-83
2023/09/05 10:12:49;;;;;;;30.88;28.90;;;27.40;99.90;;;;;;5068454;28;20020;-85
2023/09/05 10:15:18;;;;;;;32.08;29.80;;;27.30;99.90;;;;;;5051768;28;20103;-86
2023/09/05 10:17:49;;;;;;;32.50;30.40;;;27.60;99.90;;;;;;5068297;28;20123;-84
2023/09/05 10:20:19;;;;;;;32.03;29.58;;;27.60;99.90;;;;;;5051380;28;20017;-83
2023/09/05 10:22:46;;;;;;;32.80;30.50;;;27.40;99.90;;;;;;5050498;28;20428;-86
2023/09/05 10:25:14;;;;;;;32.05;29.65;;;27.30;99.90;;;;;;5067194;28;20032;-84
2023/09/05 10:27:50;;;;;;;30.95;28.90;;;26.90;99.90;;;;;;5067393;28;20504;-82
2023/09/05 10:30:27;;;;;;;31.75;29.05;;;26.80;99.90;;;;;;5049767;28;20029;-83
2023/09/05 10:33:01;;;;;;;29.88;27.83;;;26.80;99.90;;;;;;5094083;28;20048;-84
2023/09/05 10:35:32;;;;;;;30.05;27.98;;;27.00;99.90;;;;;;5066587;28;20127;-82
2023/09/05 10:38:04;;;;;;;29.60;27.52;;;26.90;99.90;;;;;;5068471;28;20021;-84
2023/09/05 10:40:39;;;;;;;30.48;28.10;;;27.10;99.90;;;;;;5064973;28;20111;-82
2023/09/05 10:43:18;;;;;;;30.45;28.35;;;27.40;99.90;;;;;;5068625;28;20024;-82
2023/09/05 10:45:53;;;;;;;30.60;28.27;;;27.40;99.90;;;;;;5067407;28;20040;-82
2023/09/05 10:48:45;;;;;;;30.90;28.50;;;27.40;99.90;;;;;;5054781;28;20063;-82
2023/09/05 10:51:14;;;;;;;30.95;28.70;;;27.20;99.90;;;;;;5054243;28;20049;-82
2023/09/05 10:53:41;;;;;;;33.00;29.67;;;27.40;99.90;;;;;;5029158;28;20033;-81
2023/09/05 10:56:40;;;;;;;31.55;29.15;;;27.20;99.90;;;;;;5053911;28;20037;-81
2023/09/05 10:59:27;;;;;;;31.33;29.33;;;27.40;99.90;;;;;;5053499;28;20028;-81
2023/09/05 11:02:00;;;;;;;32.55;30.45;;;27.30;99.90;;;;;;5052092;28;20363;-81
2023/09/05 11:04:30;;;;;;;33.10;30.80;;;27.60;99.90;;;;;;5037651;28;20079;-82
2023/09/05 11:07:01;;;;;;;32.95;30.83;;;27.50;99.90;;;;;;5053732;28;20087;-83
2023/09/05 11:09:29;;;;;;;32.58;30.30;;;27.50;99.90;;;;;;5053994;28;20044;-87
2023/09/05 11:11:56;;;;;;;33.10;30.90;;;27.60;99.90;;;;;;5037302;28;20032;-84
2023/09/05 11:14:33;;;;;;;32.75;30.35;;;27.60;99.90;;;;;;5038036;28;20063;-85
2023/09/05 11:16:59;;;;;;;32.63;30.30;;;27.60;99.90;;;;;;5052427;28;20037;-85
2023/09/05 11:19:33;;;;;;;31.02;29.02;;;27.20;99.90;;;;;;5054109;28;20013;-86
2023/09/05 11:22:11;;;;;;;;;;;26.90;99.90;;;;;;5038802;28;20040;-84
2023/09/05 11:24:45;;;;;;;31.33;28.95;;;26.90;99.90;;;;;;5050065;28;19916;-86
2023/09/05 11:27:12;;;;;;;30.88;28.88;;;26.80;99.90;;;;;;5051718;28;20033;-85
2023/09/05 11:29:41;;;;;;;31.95;29.75;;;26.70;99.90;;;;;;5037648;28;20302;-88
2023/09/05 11:32:14;;;;;;;35.90;32.53;;;26.60;99.90;;;;;;5054157;28;20036;-86
2023/09/05 11:34:42;;;;;;;33.17;29.95;;;26.70;99.90;;;;;;5054118;28;20017;-87
2023/09/05 11:37:13;;;;;;;31.90;29.48;;;26.80;99.90;;;;;;5037480;28;20044;-86
2023/09/05 11:39:40;;;;;;;31.15;28.83;;;26.80;99.90;;;;;;5037575;28;20020;-88
2023/09/05 11:42:19;;;;;;;31.05;28.73;;;26.70;99.90;;;;;;5036638;28;20099;-85
2023/09/05 11:44:46;;;;;;;30.27;28.08;;;26.80;99.90;;;;;;5036619;28;20021;-79
2023/09/05 11:47:14;;;;;;;29.98;28.05;;;27.10;99.90;;;;;;5033946;28;20026;-81
2023/09/05 11:49:41;;;;;;;31.23;28.67;;;27.00;99.90;;;;;;5052933;28;20025;-80
2023/09/05 11:52:13;;;;;;;30.70;28.30;;;26.90;99.90;;;;;;5052798;28;20102;-82
2023/09/05 11:54:40;;;;;;;31.33;28.73;;;26.90;99.90;;;;;;5052679;28;20040;-81
2023/09/05 11:57:07;;;;;;;30.70;28.30;;;26.80;99.90;;;;;;5053893;28;20561;-80
2023/09/05 11:59:34;;;;;;;29.73;27.33;;;26.70;99.90;;;;;;5051807;28;20025;-79
2023/09/05 12:02:07;;;;;;;29.17;26.77;;;26.50;99.90;;;;;;5053936;28;20029;-80
2023/09/05 12:04:35;;;;;;;29.10;26.90;;;26.40;99.90;;;;;;5052829;28;20021;-80
2023/09/05 12:07:05;;;;;;;28.83;26.50;;;26.30;99.90;;;;;;5035925;28;20021;-80
2023/09/05 12:09:32;;;;;;;28.38;25.88;;;26.40;99.90;;;;;;5051380;28;20032;-78
2023/09/05 12:12:13;;;;;;;28.42;25.92;;;26.50;99.90;;;;;;5053723;28;20065;-79
2023/09/05 12:14:54;;;;;;;28.40;25.98;;;26.30;99.90;;;;;;5052319;28;20513;-80
2023/09/05 12:17:25;;;;;;;28.35;26.10;;;26.30;99.90;;;;;;5052443;28;20028;-81
2023/09/05 12:19:54;;;;;;;27.58;25.25;;;26.30;99.90;;;;;;5049805;28;20017;-82
2023/09/05 12:22:30;;;;;;;27.83;25.65;;;26.30;99.90;;;;;;5052166;28;20482;-82
2023/09/05 12:25:10;;;;;;;28.08;25.83;;;26.50;99.90;;;;;;5051477;28;20033;-81
2023/09/05 12:27:38;;;;;;;28.52;25.98;;;26.50;99.90;;;;;;5050734;28;20024;-82
2023/09/05 12:30:07;;;;;;;29.65;27.27;;;26.70;99.90;;;;;;5052294;28;20025;-79
2023/09/05 12:32:34;;;;;;;29.10;26.90;;;26.70;99.90;;;;;;5050191;28;20031;-79
2023/09/05 12:35:00;;;;;;;29.48;26.83;;;26.80;99.90;;;;;;5055774;28;20021;-80
2023/09/05 12:37:26;;;;;;;29.25;26.83;;;26.80;99.90;;;;;;5055431;28;20115;-82
2023/09/05 12:39:56;;;;;;;28.67;26.15;;;26.80;99.90;;;;;;5055316;28;20111;-82
2023/09/05 12:42:25;;;;;;;29.52;26.90;;;26.90;99.90;;;;;;5055158;28;20059;-81
2023/09/05 12:44:52;;;;;;;29.70;27.40;;;27.30;99.90;;;;;;5077699;28;20056;-80